sensor_id;sensor_type;location;lat;lon;timestamp;P1;durP1;ratioP1;P2;durP2;ratioP2
50086;SDS011;35967;50.718;7.050;2022-09-03T00:09:55;2.30;;;0.73;;
50086;SDS011;35967;50.718;7.050;2022-09-03T00:20:05;4.37;;;1.17;;
50086;SDS011;35967;50.718;7.050;2022-09-03T00:30:17;2.57;;;0.80;;
50086;SDS011;35967;50.718;7.050;2022-09-03T01:01:04;4.00;;;0.90;;
50086;SDS011;35967;50.718;7.050;2022-09-03T01:11:22;2.73;;;0.80;;
50086;SDS011;35967;50.718;7.050;2022-09-03T01:32:06;4.17;;;0.97;;
50086;SDS011;35967;50.718;7.050;2022-09-03T02:02:27;5.57;;;0.70;;
50086;SDS011;35967;50.718;7.050;2022-09-03T02:12:32;4.20;;;0.70;;
50086;SDS011;35967;50.718;7.050;2022-09-03T02:22:38;1.63;;;0.80;;
50086;SDS011;35967;50.718;7.050;2022-09-03T02:32:41;3.03;;;0.73;;
50086;SDS011;35967;50.718;7.050;2022-09-03T02:42:43;2.03;;;0.67;;
50086;SDS011;35967;50.718;7.050;2022-09-03T02:52:47;3.37;;;1.00;;
50086;SDS011;35967;50.718;7.050;2022-09-03T03:02:49;3.57;;;0.87;;
50086;SDS011;35967;50.718;7.050;2022-09-03T03:12:51;6.77;;;1.00;;
50086;SDS011;35967;50.718;7.050;2022-09-03T03:22:52;2.90;;;0.80;;
50086;SDS011;35967;50.718;7.050;2022-09-03T03:32:55;5.37;;;0.90;;
50086;SDS011;35967;50.718;7.050;2022-09-03T03:42:57;3.53;;;0.80;;
50086;SDS011;35967;50.718;7.050;2022-09-03T03:52:59;2.70;;;0.60;;
50086;SDS011;35967;50.718;7.050;2022-09-03T04:03:02;1.97;;;0.60;;
50086;SDS011;35967;50.718;7.050;2022-09-03T04:13:04;1.83;;;0.70;;
50086;SDS011;35967;50.718;7.050;2022-09-03T04:23:06;1.67;;;0.67;;
50086;SDS011;35967;50.718;7.050;2022-09-03T04:33:11;2.50;;;0.67;;
50086;SDS011;35967;50.718;7.050;2022-09-03T04:43:16;2.58;;;0.80;;
50086;SDS011;35967;50.718;7.050;2022-09-03T04:53:18;4.37;;;1.10;;
50086;SDS011;35967;50.718;7.050;2022-09-03T05:03:20;1.37;;;0.70;;
50086;SDS011;35967;50.718;7.050;2022-09-03T05:13:22;2.27;;;0.70;;
50086;SDS011;35967;50.718;7.050;2022-09-03T05:23:24;2.37;;;1.00;;
50086;SDS011;35967;50.718;7.050;2022-09-03T05:33:26;4.13;;;0.80;;
50086;SDS011;35967;50.718;7.050;2022-09-03T05:43:29;2.10;;;0.70;;
50086;SDS011;35967;50.718;7.050;2022-09-03T05:53:32;1.87;;;0.50;;
50086;SDS011;35967;50.718;7.050;2022-09-03T06:03:35;3.10;;;0.50;;
50086;SDS011;35967;50.718;7.050;2022-09-03T06:13:37;4.10;;;0.50;;
50086;SDS011;35967;50.718;7.050;2022-09-03T06:23:40;1.30;;;0.50;;
50086;SDS011;35967;50.718;7.050;2022-09-03T06:33:47;3.30;;;0.40;;
50086;SDS011;35967;50.718;7.050;2022-09-03T06:43:58;1.43;;;0.50;;
50086;SDS011;35967;50.718;7.050;2022-09-03T06:54:04;1.33;;;0.40;;
50086;SDS011;35967;50.718;7.050;2022-09-03T07:04:11;2.60;;;0.40;;
50086;SDS011;35967;50.718;7.050;2022-09-03T07:14:16;3.47;;;0.57;;
50086;SDS011;35967;50.718;7.050;2022-09-03T07:24:20;5.50;;;0.50;;
50086;SDS011;35967;50.718;7.050;2022-09-03T07:34:23;1.10;;;0.40;;
50086;SDS011;35967;50.718;7.050;2022-09-03T07:44:26;2.40;;;0.70;;
50086;SDS011;35967;50.718;7.050;2022-09-03T07:54:29;3.40;;;0.60;;
50086;SDS011;35967;50.718;7.050;2022-09-03T08:04:32;3.63;;;1.10;;
50086;SDS011;35967;50.718;7.050;2022-09-03T08:14:34;1.70;;;0.60;;
50086;SDS011;35967;50.718;7.050;2022-09-03T08:24:36;3.80;;;0.70;;
50086;SDS011;35967;50.718;7.050;2022-09-03T08:34:39;0.80;;;0.50;;
50086;SDS011;35967;50.718;7.050;2022-09-03T08:45:23;2.60;;;0.60;;
50086;SDS011;35967;50.718;7.050;2022-09-03T08:55:30;3.13;;;0.70;;
50086;SDS011;35967;50.718;7.050;2022-09-03T09:05:45;4.40;;;1.00;;
50086;SDS011;35967;50.718;7.050;2022-09-03T09:26:28;2.60;;;1.03;;
50086;SDS011;35967;50.718;7.050;2022-09-03T09:36:30;2.23;;;0.60;;
50086;SDS011;35967;50.718;7.050;2022-09-03T09:46:38;3.90;;;0.70;;
50086;SDS011;35967;50.718;7.050;2022-09-03T09:56:42;2.70;;;0.70;;
50086;SDS011;35967;50.718;7.050;2022-09-03T10:06:45;4.17;;;0.70;;
50086;SDS011;35967;50.718;7.050;2022-09-03T10:17:07;2.27;;;0.70;;
50086;SDS011;35967;50.718;7.050;2022-09-03T10:27:15;2.27;;;0.80;;
50086;SDS011;35967;50.718;7.050;2022-09-03T10:37:33;5.30;;;0.80;;
50086;SDS011;35967;50.718;7.050;2022-09-03T11:08:48;3.00;;;0.80;;
50086;SDS011;35967;50.718;7.050;2022-09-03T11:18:56;5.00;;;1.00;;
50086;SDS011;35967;50.718;7.050;2022-09-03T11:39:53;3.83;;;0.97;;
50086;SDS011;35967;50.718;7.050;2022-09-03T11:50:04;3.03;;;1.00;;
50086;SDS011;35967;50.718;7.050;2022-09-03T12:00:15;4.83;;;1.60;;
50086;SDS011;35967;50.718;7.050;2022-09-03T12:41:24;3.22;;;1.20;;
50086;SDS011;35967;50.718;7.050;2022-09-03T12:51:40;5.50;;;1.20;;
50086;SDS011;35967;50.718;7.050;2022-09-03T13:02:04;3.70;;;1.08;;
50086;SDS011;35967;50.718;7.050;2022-09-03T13:12:22;3.05;;;1.02;;
50086;SDS011;35967;50.718;7.050;2022-09-03T13:22:36;3.78;;;1.13;;
50086;SDS011;35967;50.718;7.050;2022-09-03T13:33:20;4.55;;;1.05;;
50086;SDS011;35967;50.718;7.050;2022-09-03T13:43:36;2.20;;;0.98;;
50086;SDS011;35967;50.718;7.050;2022-09-03T14:25:02;1.95;;;0.80;;
50086;SDS011;35967;50.718;7.050;2022-09-03T14:35:18;12.70;;;1.20;;
50086;SDS011;35967;50.718;7.050;2022-09-03T15:05:40;3.35;;;0.98;;
50086;SDS011;35967;50.718;7.050;2022-09-03T15:36:56;1.80;;;0.80;;
50086;SDS011;35967;50.718;7.050;2022-09-03T15:47:07;3.03;;;0.80;;
50086;SDS011;35967;50.718;7.050;2022-09-03T15:57:28;7.72;;;2.17;;
50086;SDS011;35967;50.718;7.050;2022-09-03T16:17:42;3.85;;;1.42;;
50086;SDS011;35967;50.718;7.050;2022-09-03T16:28:03;5.60;;;1.75;;
50086;SDS011;35967;50.718;7.050;2022-09-03T16:38:22;4.38;;;1.08;;
50086;SDS011;35967;50.718;7.050;2022-09-03T16:58:50;3.00;;;1.10;;
50086;SDS011;35967;50.718;7.050;2022-09-03T17:09:11;4.43;;;2.03;;
50086;SDS011;35967;50.718;7.050;2022-09-03T17:29:50;3.63;;;1.10;;
50086;SDS011;35967;50.718;7.050;2022-09-03T17:40:11;2.93;;;1.20;;
50086;SDS011;35967;50.718;7.050;2022-09-03T17:50:30;2.67;;;1.20;;
50086;SDS011;35967;50.718;7.050;2022-09-03T18:21:10;2.60;;;1.07;;
50086;SDS011;35967;50.718;7.050;2022-09-03T18:31:34;4.93;;;1.20;;
50086;SDS011;35967;50.718;7.050;2022-09-03T18:52:40;3.37;;;1.30;;
50086;SDS011;35967;50.718;7.050;2022-09-03T19:13:32;5.00;;;1.70;;
50086;SDS011;35967;50.718;7.050;2022-09-03T19:23:57;4.53;;;1.70;;
50086;SDS011;35967;50.718;7.050;2022-09-03T19:55:48;4.38;;;2.20;;
50086;SDS011;35967;50.718;7.050;2022-09-03T20:06:13;6.63;;;2.37;;
50086;SDS011;35967;50.718;7.050;2022-09-03T20:16:43;3.57;;;1.57;;
50086;SDS011;35967;50.718;7.050;2022-09-03T20:48:02;5.33;;;2.13;;
50086;SDS011;35967;50.718;7.050;2022-09-03T21:18:43;5.37;;;3.20;;
50086;SDS011;35967;50.718;7.050;2022-09-03T21:39:42;8.23;;;4.87;;
50086;SDS011;35967;50.718;7.050;2022-09-03T22:10:18;8.80;;;4.50;;
50086;SDS011;35967;50.718;7.050;2022-09-03T22:20:22;7.43;;;3.70;;
50086;SDS011;35967;50.718;7.050;2022-09-03T22:30:26;6.53;;;3.77;;
50086;SDS011;35967;50.718;7.050;2022-09-03T22:40:47;8.70;;;3.83;;
50086;SDS011;35967;50.718;7.050;2022-09-03T23:01:03;8.73;;;4.43;;
50086;SDS011;35967;50.718;7.050;2022-09-03T23:11:25;9.27;;;4.93;;
50086;SDS011;35967;50.718;7.050;2022-09-03T23:21:34;8.03;;;5.10;;
50086;SDS011;35967;50.718;7.050;2022-09-03T23:31:41;8.47;;;5.33;;
50086;SDS011;35967;50.718;7.050;2022-09-03T23:41:46;8.23;;;5.20;;
